Time;durP1;ratioP1;P1;durP2;ratioP2;P2;SDS_P1;SDS_P2;PMS_P1;PMS_P2;Temp;Humidity;BMP_temperature;BMP_pressure;BME280_temperature;BME280_humidity;BME280_pressure;Samples;Min_cycle;Max_cycle;Signal;HPM_P1;HPM_P2
2023/05/20 00:00:48;;;;;;;23.83;18.38;;;;;;;;;;5120296;28;20081;-92
2023/05/20 00:03:18;;;;;;;23.20;20.02;;;;;;;;;;5120333;28;20402;-92
2023/05/20 00:05:44;;;;;;;21.13;18.65;;;;;;;;;;5119914;28;20032;-92
2023/05/20 00:08:10;;;;;;;21.45;18.73;;;;;;;;;;5120488;28;20019;-91
2023/05/20 00:10:37;;;;;;;21.10;18.95;;;;;;;;;;5120292;28;20022;-91
2023/05/20 00:13:03;;;;;;;24.08;19.15;;;;;;;;;;5120392;28;20061;-91
2023/05/20 00:15:29;;;;;;;22.35;19.98;;;;;;;;;;5120233;28;20055;-92
2023/05/20 00:17:55;;;;;;;21.17;18.83;;;;;;;;;;5120136;28;20019;-90
2023/05/20 00:20:22;;;;;;;23.83;19.27;;;;;;;;;;5118860;28;20106;-91
2023/05/20 00:22:48;;;;;;;23.88;18.88;;;;;;;;;;5118987;28;20036;-91
2023/05/20 00:25:14;;;;;;;20.42;18.23;;;;;;;;;;5118993;28;20070;-90
2023/05/20 00:27:43;;;;;;;20.50;18.35;;;;;;;;;;5118858;28;20047;-91
2023/05/20 00:30:10;;;;;;;25.10;17.98;;;;;;;;;;5118957;28;20019;-90
2023/05/20 00:32:36;;;;;;;20.02;17.85;;;;;;;;;;5119791;28;20421;-91
2023/05/20 00:35:03;;;;;;;21.95;19.45;;;;;;;;;;5119520;28;20440;-90
2023/05/20 00:37:29;;;;;;;20.40;18.25;;;;;;;;;;5119984;28;20023;-90
2023/05/20 00:39:55;;;;;;;21.40;18.77;;;;;;;;;;5119000;28;20084;-90
2023/05/20 00:42:21;;;;;;;22.65;18.95;;;;;;;;;;5120164;28;20145;-91
2023/05/20 00:44:47;;;;;;;22.05;19.70;;;;;;;;;;5119867;28;20031;-90
2023/05/20 00:47:15;;;;;;;21.42;18.58;;;;;;;;;;5119460;28;20026;-91
2023/05/20 00:49:41;;;;;;;21.35;17.77;;;;;;;;;;5119127;28;20022;-90
2023/05/20 00:52:07;;;;;;;23.73;17.95;;;;;;;;;;5107408;28;20028;-89
2023/05/20 00:54:33;;;;;;;24.63;17.88;;;;;;;;;;5109367;28;20024;-92
2023/05/20 00:57:01;;;;;;;21.52;17.60;;;;;;;;;;5107958;28;20056;-90
2023/05/20 00:59:28;;;;;;;22.85;18.85;;;;;;;;;;5099300;28;20131;-92
2023/05/20 01:01:54;;;;;;;22.42;18.27;;;;;;;;;;5097930;28;20032;-89
2023/05/20 01:04:20;;;;;;;19.60;17.08;;;;;;;;;;5116618;28;20020;-91
2023/05/20 01:06:46;;;;;;;25.30;18.98;;;;;;;;;;5119537;28;20027;-91
2023/05/20 01:09:13;;;;;;;22.45;18.60;;;;;;;;;;5118216;28;20019;-91
2023/05/20 01:11:44;;;;;;;22.90;19.33;;;;;;;;;;5120906;27;20024;-90
2023/05/20 01:14:12;;;;;;;22.30;19.83;;;;;;;;;;5139807;27;20035;-90
2023/05/20 01:16:38;;;;;;;23.90;21.25;;;;;;;;;;5139461;27;20321;-91
2023/05/20 01:19:08;;;;;;;23.00;19.30;;;;;;;;;;5138515;27;20031;-91
2023/05/20 01:21:34;;;;;;;21.35;18.55;;;;;;;;;;5135497;27;20038;-89
2023/05/20 01:24:28;;;;;;;22.65;18.63;;;;;;;;;;5118757;28;20035;-91
2023/05/20 01:26:56;;;;;;;20.67;18.67;;;;;;;;;;5118572;28;20039;-91
2023/05/20 01:29:23;;;;;;;20.63;18.38;;;;;;;;;;5118748;28;20034;-90
2023/05/20 01:31:50;;;;;;;20.58;18.40;;;;;;;;;;5119004;28;20305;-91
2023/05/20 01:34:17;;;;;;;21.10;18.85;;;;;;;;;;5102975;28;20048;-91
2023/05/20 01:36:44;;;;;;;20.85;17.98;;;;;;;;;;5098443;28;20020;-91
2023/05/20 01:39:33;;;;;;;22.58;18.10;;;;;;;;;;5098588;28;20099;-90
2023/05/20 01:42:01;;;;;;;20.17;18.02;;;;;;;;;;5098163;28;20027;-91
2023/05/20 01:44:27;;;;;;;19.23;17.27;;;;;;;;;;5096577;28;20024;-91
2023/05/20 01:46:53;;;;;;;19.88;17.77;;;;;;;;;;5098282;28;20035;-91
2023/05/20 01:49:19;;;;;;;19.98;17.83;;;;;;;;;;5097113;28;20024;-90
2023/05/20 01:51:45;;;;;;;18.88;16.38;;;;;;;;;;5098348;28;20099;-91
2023/05/20 01:54:34;;;;;;;18.40;15.90;;;;;;;;;;5098064;28;20031;-90
2023/05/20 01:57:00;;;;;;;19.00;17.00;;;;;;;;;;5096839;28;20470;-91
2023/05/20 01:59:26;;;;;;;20.05;16.98;;;;;;;;;;5098063;28;20410;-91
2023/05/20 02:01:52;;;;;;;17.67;15.77;;;;;;;;;;5110582;28;20032;-90
2023/05/20 02:04:18;;;;;;;18.52;16.73;;;;;;;;;;5118149;28;20432;-91
2023/05/20 02:06:44;;;;;;;17.95;16.00;;;;;;;;;;5118678;28;20043;-91
2023/05/20 02:09:35;;;;;;;17.80;15.90;;;;;;;;;;5117194;28;20023;-91
2023/05/20 02:12:01;;;;;;;17.85;16.02;;;;;;;;;;5117275;28;20401;-91
2023/05/20 02:14:27;;;;;;;19.08;16.85;;;;;;;;;;5118488;28;20102;-90
2023/05/20 02:16:53;;;;;;;20.30;16.98;;;;;;;;;;5117995;28;20024;-90
2023/05/20 02:19:22;;;;;;;17.52;15.43;;;;;;;;;;5118101;28;20142;-90
2023/05/20 02:21:48;;;;;;;20.30;14.68;;;;;;;;;;5099584;28;20032;-92
2023/05/20 02:24:15;;;;;;;18.60;16.42;;;;;;;;;;5097570;28;20024;-92
2023/05/20 02:26:41;;;;;;;21.30;15.75;;;;;;;;;;5096653;28;20117;-91
2023/05/20 02:29:07;;;;;;;16.88;15.18;;;;;;;;;;5097593;28;20024;-91
2023/05/20 02:31:33;;;;;;;15.65;14.05;;;;;;;;;;5097842;28;20048;-91
2023/05/20 02:33:59;;;;;;;15.30;13.63;;;;;;;;;;5097504;28;20024;-91
2023/05/20 02:36:26;;;;;;;15.15;13.55;;;;;;;;;;5097488;28;20024;-90
2023/05/20 02:38:55;;;;;;;17.58;13.82;;;;;;;;;;5097711;28;20031;-91
2023/05/20 02:41:22;;;;;;;14.52;13.07;;;;;;;;;;5097615;28;20103;-91
2023/05/20 02:43:48;;;;;;;17.10;12.98;;;;;;;;;;5098425;28;20373;-92
2023/05/20 02:46:14;;;;;;;14.98;12.70;;;;;;;;;;5114118;28;20049;-92
2023/05/20 02:48:40;;;;;;;15.40;12.57;;;;;;;;;;5098567;28;20074;-91
2023/05/20 02:51:07;;;;;;;21.10;13.27;;;;;;;;;;5097306;28;20016;-91
2023/05/20 02:53:33;;;;;;;14.68;12.48;;;;;;;;;;5096478;28;20024;-91
2023/05/20 02:59:16;;;;;;;21.17;13.60;;;;;;;;;;5094078;28;20104;-91
2023/05/20 03:01:42;;;;;;;37.42;16.25;;;;;;;;;;5115340;28;20039;-91
2023/05/20 03:04:08;;;;;;;78.40;17.00;;;;;;;;;;5121589;28;20031;-92
2023/05/20 03:06:34;;;;;;;45.55;15.68;;;;;;;;;;5121493;28;20031;-92
2023/05/20 03:09:00;;;;;;;25.67;17.38;;;;;;;;;;5120451;28;20031;-90
2023/05/20 03:14:30;;;;;;;16.83;15.23;;;;;;;;;;5121734;28;20079;-90
2023/05/20 03:16:56;;;;;;;17.48;14.90;;;;;;;;;;5121692;28;20027;-90
2023/05/20 03:19:22;;;;;;;17.10;14.27;;;;;;;;;;5111526;28;20110;-90
2023/05/20 03:21:49;;;;;;;16.10;14.43;;;;;;;;;;5100763;28;20028;-90
2023/05/20 03:24:15;;;;;;;14.73;13.13;;;;;;;;;;5100769;28;20103;-90
2023/05/20 03:26:42;;;;;;;15.55;14.05;;;;;;;;;;5100839;28;20036;-90
2023/05/20 03:29:09;;;;;;;15.98;14.30;;;;;;;;;;5101062;28;20024;-90
2023/05/20 03:31:35;;;;;;;17.08;15.15;;;;;;;;;;5099844;28;20031;-90
2023/05/20 03:34:01;;;;;;;18.10;13.95;;;;;;;;;;5099693;28;20027;-90
2023/05/20 03:36:28;;;;;;;16.20;14.50;;;;;;;;;;5100399;28;20031;-90
2023/05/20 03:38:54;;;;;;;18.77;16.42;;;;;;;;;;5109289;28;20042;-91
2023/05/20 03:41:21;;;;;;;17.90;15.05;;;;;;;;;;5120041;28;20065;-90
2023/05/20 03:43:47;;;;;;;18.92;15.07;;;;;;;;;;5119957;28;20027;-89
2023/05/20 03:46:13;;;;;;;23.25;15.90;;;;;;;;;;5119707;28;20030;-90
2023/05/20 03:48:39;;;;;;;17.48;15.77;;;;;;;;;;5119850;28;20024;-90
2023/05/20 03:51:06;;;;;;;22.13;16.60;;;;;;;;;;5120966;28;20103;-90
2023/05/20 03:53:32;;;;;;;20.48;17.02;;;;;;;;;;5120578;28;20028;-90
2023/05/20 03:55:58;;;;;;;18.10;16.17;;;;;;;;;;5119897;28;20333;-90
2023/05/20 03:58:25;;;;;;;20.38;17.38;;;;;;;;;;5119798;28;20127;-89
2023/05/20 04:00:51;;;;;;;26.48;17.48;;;;;;;;;;5119158;28;20035;-91
2023/05/20 04:03:17;;;;;;;22.80;17.90;;;;;;;;;;5119425;28;20398;-90
2023/05/20 04:05:43;;;;;;;23.98;17.88;;;;;;;;;;5120537;28;20019;-88
2023/05/20 04:08:12;;;;;;;24.50;18.42;;;;;;;;;;5118442;28;20039;-90
2023/05/20 04:13:51;;;;;;;22.35;18.98;;;;;;;;;;5100088;28;20427;-91
2023/05/20 04:16:17;;;;;;;28.70;19.10;;;;;;;;;;5100093;28;20042;-91
2023/05/20 04:18:44;;;;;;;26.15;18.73;;;;;;;;;;5099673;28;20437;-91
2023/05/20 04:21:11;;;;;;;20.63;18.10;;;;;;;;;;5099481;28;20299;-90
2023/05/20 04:23:37;;;;;;;21.13;18.83;;;;;;;;;;5099944;28;20012;-90
2023/05/20 04:29:28;;;;;;;22.95;17.38;;;;;;;;;;5107409;28;20058;-89
2023/05/20 04:31:57;;;;;;;25.17;18.02;;;;;;;;;;5120281;27;20421;-90
2023/05/20 04:34:25;;;;;;;28.27;17.65;;;;;;;;;;5119936;28;20031;-91
2023/05/20 04:36:51;;;;;;;24.98;16.45;;;;;;;;;;5129187;28;20023;-90
2023/05/20 04:39:19;;;;;;;21.30;16.52;;;;;;;;;;5121013;28;20023;-90
2023/05/20 04:41:47;;;;;;;22.52;16.88;;;;;;;;;;5119951;28;20117;-90
2023/05/20 04:44:13;;;;;;;24.70;16.73;;;;;;;;;;5105044;28;20028;-89
2023/05/20 04:46:40;;;;;;;22.10;16.05;;;;;;;;;;5099285;28;20028;-91
2023/05/20 04:49:06;;;;;;;22.02;16.95;;;;;;;;;;5099616;28;20023;-89
2023/05/20 04:51:34;;;;;;;21.67;17.38;;;;;;;;;;5099369;28;20020;-90
2023/05/20 04:54:00;;;;;;;20.35;16.73;;;;;;;;;;5098894;28;20465;-92
2023/05/20 04:56:26;;;;;;;23.88;17.27;;;;;;;;;;5098206;28;20101;-92
2023/05/20 04:58:53;;;;;;;27.10;17.00;;;;;;;;;;5101179;28;20131;-91
2023/05/20 05:01:19;;;;;;;27.08;17.23;;;;;;;;;;5099185;28;20481;-91
2023/05/20 05:03:45;;;;;;;19.52;17.13;;;;;;;;;;5111477;28;20035;-91
2023/05/20 05:06:11;;;;;;;26.42;17.55;;;;;;;;;;5119124;28;20053;-91
2023/05/20 05:08:37;;;;;;;25.00;17.17;;;;;;;;;;5119598;28;20373;-91
2023/05/20 05:14:21;;;;;;;24.00;14.93;;;;;;;;;;5119382;28;20038;-88
2023/05/20 05:16:47;;;;;;;21.40;15.85;;;;;;;;;;5098213;28;20380;-88
2023/05/20 05:19:13;;;;;;;19.63;15.85;;;;;;;;;;5098296;28;20032;-89
2023/05/20 05:21:39;;;;;;;21.02;15.90;;;;;;;;;;5108421;28;20016;-88
2023/05/20 05:24:05;;;;;;;18.88;15.20;;;;;;;;;;5100502;28;20069;-88
2023/05/20 05:29:35;;;;;;;17.58;14.55;;;;;;;;;;5098718;28;20065;-89
2023/05/20 05:32:01;;;;;;;18.48;15.18;;;;;;;;;;5098355;28;20025;-89
2023/05/20 05:34:27;;;;;;;21.98;15.50;;;;;;;;;;5098449;28;20457;-90
2023/05/20 05:36:53;;;;;;;19.85;15.68;;;;;;;;;;5103631;28;20028;-88
2023/05/20 05:39:19;;;;;;;20.08;15.55;;;;;;;;;;5117612;28;20056;-88
2023/05/20 05:41:45;;;;;;;18.08;16.15;;;;;;;;;;5118316;28;20023;-92
2023/05/20 05:44:11;;;;;;;19.23;15.98;;;;;;;;;;5118510;28;20058;-93
2023/05/20 05:46:37;;;;;;;23.60;14.43;;;;;;;;;;5112076;28;20028;-89
2023/05/20 05:49:03;;;;;;;20.02;15.75;;;;;;;;;;5104967;28;20410;-91
2023/05/20 05:51:29;;;;;;;25.40;17.88;;;;;;;;;;5115626;28;20413;-89
2023/05/20 05:53:56;;;;;;;23.23;16.13;;;;;;;;;;5097915;28;20032;-90
2023/05/20 05:56:40;;;;;;;20.00;17.10;;;;;;;;;;5098046;28;20036;-84
2023/05/20 05:59:07;;;;;;;23.00;17.48;;;;;;;;;;5097500;28;20406;-87
2023/05/20 06:01:33;;;;;;;21.52;16.48;;;;;;;;;;5097107;28;20333;-91
2023/05/20 06:04:00;;;;;;;20.77;15.80;;;;;;;;;;5106950;28;20032;-89
2023/05/20 06:06:26;;;;;;;35.95;25.80;;;;;;;;;;5112923;28;20028;-89
2023/05/20 06:08:52;;;;;;;23.20;17.40;;;;;;;;;;5117187;28;20020;-90
2023/05/20 06:11:19;;;;;;;23.08;17.50;;;;;;;;;;5102551;28;20024;-89
2023/05/20 06:13:45;;;;;;;22.10;16.27;;;;;;;;;;5098128;28;20027;-88
2023/05/20 06:16:11;;;;;;;21.95;17.52;;;;;;;;;;5098057;28;20040;-88
2023/05/20 06:18:37;;;;;;;26.33;19.83;;;;;;;;;;5096875;28;20338;-87
2023/05/20 06:21:03;;;;;;;22.23;16.20;;;;;;;;;;5097760;28;20041;-88
2023/05/20 06:23:30;;;;;;;21.33;17.60;;;;;;;;;;5097755;28;20028;-91
2023/05/20 06:28:59;;;;;;;21.58;16.60;;;;;;;;;;5112959;28;20026;-88
2023/05/20 06:31:26;;;;;;;23.60;17.88;;;;;;;;;;5120706;28;20023;-89
2023/05/20 06:33:52;;;;;;;22.90;17.27;;;;;;;;;;5121189;28;20023;-88
2023/05/20 06:36:21;;;;;;;20.13;17.25;;;;;;;;;;5121441;28;20031;-93
2023/05/20 06:38:47;;;;;;;25.23;17.40;;;;;;;;;;5118676;28;20046;-89
2023/05/20 06:47:33;;;;;;;21.58;16.27;;;;;;;;;;5121766;28;20104;-87
2023/05/20 06:49:59;;;;;;;20.25;16.05;;;;;;;;;;5122025;28;20028;-86
2023/05/20 06:52:25;;;;;;;25.58;19.65;;;;;;;;;;5120684;28;20028;-87
2023/05/20 06:54:51;;;;;;;18.20;15.95;;;;;;;;;;5117955;28;20035;-89
2023/05/20 07:00:21;;;;;;;19.20;14.50;;;;;;;;;;5094133;28;20085;-89
2023/05/20 07:02:47;;;;;;;18.25;14.65;;;;;;;;;;5105046;28;20039;-88
2023/05/20 07:05:13;;;;;;;25.13;14.75;;;;;;;;;;5104161;28;20069;-88
2023/05/20 07:07:39;;;;;;;24.35;19.40;;;;;;;;;;5106355;28;20032;-89
2023/05/20 07:10:06;;;;;;;19.85;15.77;;;;;;;;;;5121522;28;20031;-89
2023/05/20 07:12:32;;;;;;;28.45;17.00;;;;;;;;;;5107788;28;20031;-89
2023/05/20 07:14:59;;;;;;;21.98;14.93;;;;;;;;;;5114730;28;20027;-87
2023/05/20 07:17:25;;;;;;;19.98;15.48;;;;;;;;;;5118808;28;20043;-88
2023/05/20 07:19:51;;;;;;;22.67;16.65;;;;;;;;;;5101177;28;20031;-92
2023/05/20 07:22:17;;;;;;;18.08;13.98;;;;;;;;;;5110120;28;20028;-85
2023/05/20 07:24:45;;;;;;;21.73;14.88;;;;;;;;;;5110451;28;20024;-89
2023/05/20 07:27:30;;;;;;;26.73;16.15;;;;;;;;;;5107095;28;20355;-89
2023/05/20 07:29:56;;;;;;;18.73;13.75;;;;;;;;;;5120938;28;20405;-90
2023/05/20 07:32:22;;;;;;;22.15;13.70;;;;;;;;;;5114424;28;20427;-90
2023/05/20 07:34:48;;;;;;;22.17;15.95;;;;;;;;;;5120047;28;20031;-90
2023/05/20 07:37:15;;;;;;;19.50;13.85;;;;;;;;;;5107588;28;20034;-91
2023/05/20 07:39:41;;;;;;;17.98;14.25;;;;;;;;;;5120593;28;20362;-89
2023/05/20 07:45:11;;;;;;;17.55;13.57;;;;;;;;;;5101839;28;20027;-89
2023/05/20 07:47:37;;;;;;;16.63;13.57;;;;;;;;;;5099251;28;20036;-87
2023/05/20 07:50:03;;;;;;;17.92;14.10;;;;;;;;;;5110293;28;20059;-90
2023/05/20 07:52:30;;;;;;;23.17;15.52;;;;;;;;;;5117132;28;20065;-90
2023/05/20 07:54:56;;;;;;;16.70;14.93;;;;;;;;;;5120912;28;20024;-90
2023/05/20 07:57:22;;;;;;;19.55;15.05;;;;;;;;;;5118695;28;20045;-81
2023/05/20 07:59:48;;;;;;;20.10;14.73;;;;;;;;;;5118634;28;20043;-90
2023/05/20 08:02:14;;;;;;;20.50;13.40;;;;;;;;;;5120335;28;20044;-89
2023/05/20 08:04:41;;;;;;;15.60;13.50;;;;;;;;;;5120305;28;20414;-90
2023/05/20 08:07:07;;;;;;;19.40;14.52;;;;;;;;;;5104835;28;20039;-89
2023/05/20 08:09:33;;;;;;;18.60;14.85;;;;;;;;;;5100165;28;20028;-90
2023/05/20 08:11:59;;;;;;;19.17;14.55;;;;;;;;;;5098949;28;20145;-90
2023/05/20 08:14:26;;;;;;;17.25;14.75;;;;;;;;;;5100138;28;20028;-90
2023/05/20 08:16:52;;;;;;;14.68;11.27;;;;;;;;;;5110036;28;20118;-90
2023/05/20 08:19:18;;;;;;;17.20;12.32;;;;;;;;;;5109910;28;20032;-88
2023/05/20 08:21:44;;;;;;;16.00;12.38;;;;;;;;;;5118065;28;20023;-87
2023/05/20 08:24:10;;;;;;;15.80;12.77;;;;;;;;;;5103655;28;20032;-89
2023/05/20 08:26:36;;;;;;;13.25;11.85;;;;;;;;;;5114216;28;20401;-90
2023/05/20 08:29:03;;;;;;;13.63;11.48;;;;;;;;;;5119947;28;20026;-91
2023/05/20 08:31:29;;;;;;;15.48;11.43;;;;;;;;;;5118618;28;20115;-90
2023/05/20 08:33:55;;;;;;;15.45;12.95;;;;;;;;;;5120021;28;20019;-90
2023/05/20 08:36:21;;;;;;;20.75;14.93;;;;;;;;;;5120061;28;20023;-90
2023/05/20 08:38:47;;;;;;;16.40;13.45;;;;;;;;;;5118287;28;20028;-89
2023/05/20 08:41:13;;;;;;;18.98;12.52;;;;;;;;;;5105540;28;20024;-90
2023/05/20 08:43:40;;;;;;;17.60;14.13;;;;;;;;;;5098301;28;20127;-89
2023/05/20 08:46:06;;;;;;;17.95;14.00;;;;;;;;;;5098174;28;20046;-90
2023/05/20 08:48:33;;;;;;;17.77;12.32;;;;;;;;;;5098414;28;20062;-89
2023/05/20 08:51:00;;;;;;;14.82;12.20;;;;;;;;;;5098137;28;20045;-89
2023/05/20 08:53:26;;;;;;;21.67;13.93;;;;;;;;;;5097443;28;20066;-89
2023/05/20 08:56:01;;;;;;;16.73;14.20;;;;;;;;;;5098946;28;20060;-90
2023/05/20 08:58:27;;;;;;;15.23;12.98;;;;;;;;;;5098071;28;20093;-89
2023/05/20 09:00:53;;;;;;;16.67;13.10;;;;;;;;;;5098817;28;20036;-90
2023/05/20 09:03:20;;;;;;;18.00;12.70;;;;;;;;;;5099048;28;20016;-89
2023/05/20 09:05:46;;;;;;;14.70;12.45;;;;;;;;;;5098771;28;20099;-89
2023/05/20 09:08:12;;;;;;;17.60;13.63;;;;;;;;;;5097936;28;20024;-89
2023/05/20 09:10:40;;;;;;;17.15;12.23;;;;;;;;;;5098922;28;20030;-89
2023/05/20 09:13:06;;;;;;;16.20;11.82;;;;;;;;;;5097801;28;20030;-89
2023/05/20 09:15:33;;;;;;;19.15;12.35;;;;;;;;;;5098692;28;20051;-89
2023/05/20 09:18:01;;;;;;;14.38;11.27;;;;;;;;;;5098625;28;20044;-90
2023/05/20 09:20:28;;;;;;;12.98;11.48;;;;;;;;;;5098626;28;20365;-89
2023/05/20 09:22:58;;;;;;;13.73;10.10;;;;;;;;;;5098631;28;20074;-89
2023/05/20 09:25:24;;;;;;;12.65;9.88;;;;;;;;;;5098535;28;20043;-90
2023/05/20 09:27:50;;;;;;;14.20;10.57;;;;;;;;;;5098468;28;20031;-90
2023/05/20 09:30:20;;;;;;;13.25;10.55;;;;;;;;;;5098177;28;20020;-89
2023/05/20 09:32:52;;;;;;;12.52;9.75;;;;;;;;;;5097320;28;20027;-89
2023/05/20 09:35:18;;;;;;;14.07;10.93;;;;;;;;;;5097559;28;20430;-89
2023/05/20 09:37:46;;;;;;;14.20;10.38;;;;;;;;;;5097332;28;20028;-89
2023/05/20 09:40:14;;;;;;;12.48;10.10;;;;;;;;;;5097317;28;20123;-89
2023/05/20 09:42:40;;;;;;;10.80;9.35;;;;;;;;;;5097243;28;20031;-89
2023/05/20 09:45:08;;;;;;;17.58;10.38;;;;;;;;;;5098083;28;20023;-88
2023/05/20 09:47:36;;;;;;;40.10;16.45;;;;;;;;;;5096970;28;20020;-90
2023/05/20 09:50:02;;;;;;;270.15;62.47;;;;;;;;;;5098118;28;20106;-90
2023/05/20 09:52:29;;;;;;;100.65;27.08;;;;;;;;;;5098121;28;20310;-89
2023/05/20 09:54:56;;;;;;;26.83;12.43;;;;;;;;;;5098051;28;20051;-89
2023/05/20 09:57:22;;;;;;;18.92;10.30;;;;;;;;;;5096935;28;20024;-89
2023/05/20 09:59:50;;;;;;;22.20;12.07;;;;;;;;;;5097248;28;20044;-89
2023/05/20 10:02:16;;;;;;;16.83;9.52;;;;;;;;;;5097699;28;20044;-89
2023/05/20 10:04:45;;;;;;;11.82;9.18;;;;;;;;;;5097163;28;20024;-90
2023/05/20 10:07:11;;;;;;;15.63;9.88;;;;;;;;;;5106666;28;20027;-89
2023/05/20 10:09:37;;;;;;;13.75;9.93;;;;;;;;;;5097256;28;20471;-90
2023/05/20 10:12:23;;;;;;;11.95;8.80;;;;;;;;;;5097528;28;20065;-90
2023/05/20 10:14:55;;;;;;;16.90;10.00;;;;;;;;;;5015962;28;20030;-89
2023/05/20 10:17:44;;;;;;;11.45;8.73;;;;;;;;;;4999067;28;20038;-90
2023/05/20 10:20:10;;;;;;;10.55;8.90;;;;;;;;;;5016349;28;20072;-90
2023/05/20 10:22:38;;;;;;;20.52;9.88;;;;;;;;;;4999818;28;20034;-91
2023/05/20 10:25:06;;;;;;;27.33;10.32;;;;;;;;;;4999890;28;20038;-90
2023/05/20 10:27:42;;;;;;;15.20;9.65;;;;;;;;;;5016141;28;20057;-90
2023/05/20 10:30:15;;;;;;;13.50;10.07;;;;;;;;;;4999446;28;20121;-88
2023/05/20 10:32:48;;;;;;;16.02;10.35;;;;;;;;;;4999733;28;20030;-89
2023/05/20 10:35:20;;;;;;;10.60;9.23;;;;;;;;;;5016071;28;20018;-88
2023/05/20 10:37:47;;;;;;;13.63;9.80;;;;;;;;;;5016132;28;20030;-89
2023/05/20 10:40:14;;;;;;;13.35;9.80;;;;;;;;;;5015945;28;20037;-90
2023/05/20 10:42:40;;;;;;;14.60;9.88;;;;;;;;;;5015892;28;20128;-89
2023/05/20 10:45:07;;;;;;;15.48;9.35;;;;;;;;;;4999407;28;20367;-89
2023/05/20 10:47:33;;;;;;;15.00;8.60;;;;;;;;;;5015732;28;20034;-89
2023/05/20 10:50:04;;;;;;;10.32;9.10;;;;;;;;;;5015590;28;20113;-90
2023/05/20 10:52:35;;;;;;;37.63;14.65;;;;;;;;;;5072486;28;20528;-88
2023/05/20 10:55:03;;;;;;;20.38;11.40;;;;;;;;;;5096538;28;20040;-90
2023/05/20 10:57:31;;;;;;;14.68;10.07;;;;;;;;;;5097277;28;20039;-89
2023/05/20 10:59:57;;;;;;;13.05;8.98;;;;;;;;;;5096221;28;20103;-89
2023/05/20 11:02:25;;;;;;;12.70;9.57;;;;;;;;;;5096493;28;20031;-89
2023/05/20 11:04:58;;;;;;;33.55;11.50;;;;;;;;;;5096477;28;20020;-90
2023/05/20 11:07:28;;;;;;;15.20;9.20;;;;;;;;;;5096953;28;20112;-89
2023/05/20 11:09:55;;;;;;;12.88;9.50;;;;;;;;;;5097383;28;20437;-89
2023/05/20 11:12:21;;;;;;;10.05;8.50;;;;;;;;;;5097079;28;20020;-90
2023/05/20 11:14:48;;;;;;;11.15;9.43;;;;;;;;;;5097159;28;20024;-89
2023/05/20 11:17:16;;;;;;;10.90;8.85;;;;;;;;;;5100120;28;20030;-89
2023/05/20 11:19:42;;;;;;;12.98;9.15;;;;;;;;;;5100764;28;20029;-89
2023/05/20 11:22:08;;;;;;;14.00;9.15;;;;;;;;;;5100786;28;20414;-90
2023/05/20 11:24:34;;;;;;;12.98;9.27;;;;;;;;;;5101124;28;20032;-89
2023/05/20 11:27:01;;;;;;;11.85;8.98;;;;;;;;;;5100669;28;20031;-89
2023/05/20 11:29:30;;;;;;;10.75;8.55;;;;;;;;;;5099846;28;20104;-90
2023/05/20 11:31:57;;;;;;;11.13;9.35;;;;;;;;;;5100952;28;20099;-89
2023/05/20 11:34:23;;;;;;;14.38;8.68;;;;;;;;;;5099189;28;20137;-89
2023/05/20 11:36:56;;;;;;;19.10;9.07;;;;;;;;;;5104004;28;20038;-91
2023/05/20 11:39:22;;;;;;;10.23;9.02;;;;;;;;;;5121240;27;20135;-90
2023/05/20 11:41:48;;;;;;;13.38;9.40;;;;;;;;;;5112649;28;20028;-90
2023/05/20 11:44:14;;;;;;;14.02;10.07;;;;;;;;;;5100521;28;20047;-89
2023/05/20 11:46:43;;;;;;;14.45;9.98;;;;;;;;;;5100230;28;20134;-89
2023/05/20 11:49:10;;;;;;;11.70;9.68;;;;;;;;;;5100274;28;20016;-89
2023/05/20 11:51:38;;;;;;;13.95;10.07;;;;;;;;;;5100455;28;20031;-89
2023/05/20 11:54:05;;;;;;;13.30;9.57;;;;;;;;;;5101472;28;20024;-89
2023/05/20 11:56:37;;;;;;;11.82;9.48;;;;;;;;;;5114069;28;20047;-90
2023/05/20 11:59:05;;;;;;;19.20;9.13;;;;;;;;;;5099410;28;20109;-90
2023/05/20 12:01:44;;;;;;;18.40;9.27;;;;;;;;;;5099117;28;20048;-90
2023/05/20 12:04:13;;;;;;;21.05;9.68;;;;;;;;;;5099912;28;20111;-90
2023/05/20 12:06:39;;;;;;;14.80;9.40;;;;;;;;;;5099731;28;20034;-91
2023/05/20 12:09:06;;;;;;;13.68;9.18;;;;;;;;;;5099010;28;20027;-91
2023/05/20 12:11:35;;;;;;;11.80;9.90;;;;;;;;;;5100737;28;20028;-90
2023/05/20 12:14:02;;;;;;;13.48;9.27;;;;;;;;;;5100053;28;20016;-89
2023/05/20 12:16:29;;;;;;;11.02;8.32;;;;;;;;;;5098796;28;20059;-92
2023/05/20 12:18:56;;;;;;;19.70;9.63;;;;;;;;;;5099326;28;20047;-89
2023/05/20 12:21:22;;;;;;;11.52;8.80;;;;;;;;;;5099762;28;20024;-90
2023/05/20 12:23:48;;;;;;;12.15;9.45;;;;;;;;;;5099795;28;20111;-90
2023/05/20 12:26:14;;;;;;;11.45;8.70;;;;;;;;;;5099775;28;20028;-91
2023/05/20 12:28:40;;;;;;;12.57;8.57;;;;;;;;;;5098215;28;20024;-90
2023/05/20 12:31:06;;;;;;;10.40;9.07;;;;;;;;;;5099561;28;20017;-90
2023/05/20 12:33:32;;;;;;;11.07;9.43;;;;;;;;;;5098096;28;20031;-89
2023/05/20 12:35:59;;;;;;;11.02;8.73;;;;;;;;;;5099538;28;20311;-90
2023/05/20 12:38:25;;;;;;;14.57;10.50;;;;;;;;;;5099319;28;20306;-91
2023/05/20 12:40:51;;;;;;;12.35;9.27;;;;;;;;;;5098780;28;20310;-89
2023/05/20 12:43:17;;;;;;;11.95;9.02;;;;;;;;;;5098541;28;20434;-90
2023/05/20 12:45:43;;;;;;;11.95;7.43;;;;;;;;;;5098287;28;20420;-89
2023/05/20 12:48:09;;;;;;;16.75;8.73;;;;;;;;;;5099200;28;20032;-89
2023/05/20 12:50:35;;;;;;;37.25;9.85;;;;;;;;;;5099239;28;20028;-90
2023/05/20 12:53:01;;;;;;;28.38;8.60;;;;;;;;;;5099237;28;20027;-89
2023/05/20 12:55:27;;;;;;;17.17;8.07;;;;;;;;;;5097855;28;20036;-89
2023/05/20 12:57:55;;;;;;;18.98;8.88;;;;;;;;;;5098308;28;20028;-90
2023/05/20 13:00:21;;;;;;;11.07;7.75;;;;;;;;;;5098907;28;20398;-89
2023/05/20 13:02:47;;;;;;;14.82;8.68;;;;;;;;;;5098901;28;20024;-90
2023/05/20 13:05:13;;;;;;;10.80;7.47;;;;;;;;;;5098769;28;20032;-90
2023/05/20 13:07:40;;;;;;;11.10;7.90;;;;;;;;;;5100697;28;20024;-87
2023/05/20 13:10:06;;;;;;;11.32;7.85;;;;;;;;;;5100853;28;20033;-87
2023/05/20 13:12:33;;;;;;;13.30;8.93;;;;;;;;;;5098693;28;20027;-87
2023/05/20 13:14:59;;;;;;;12.55;8.35;;;;;;;;;;5097680;28;20040;-87
2023/05/20 13:17:25;;;;;;;12.40;8.35;;;;;;;;;;5097844;28;20406;-88
2023/05/20 13:19:51;;;;;;;12.02;9.00;;;;;;;;;;5109764;28;20024;-86
2023/05/20 13:22:21;;;;;;;12.55;8.30;;;;;;;;;;5113589;28;20047;-92
2023/05/20 13:24:47;;;;;;;13.18;8.80;;;;;;;;;;5117898;28;20023;-87
2023/05/20 13:30:17;;;;;;;10.80;8.00;;;;;;;;;;5119058;28;20052;-91
2023/05/20 13:32:43;;;;;;;12.73;8.18;;;;;;;;;;5118904;28;20477;-88
2023/05/20 13:35:09;;;;;;;12.88;7.90;;;;;;;;;;5117600;28;20418;-90
2023/05/20 13:37:35;;;;;;;12.80;7.93;;;;;;;;;;5112485;28;20099;-89
2023/05/20 13:40:02;;;;;;;12.45;7.90;;;;;;;;;;5097688;28;20035;-90
2023/05/20 13:42:28;;;;;;;12.20;8.57;;;;;;;;;;5097532;28;20357;-90
2023/05/20 13:44:54;;;;;;;8.75;7.85;;;;;;;;;;5110626;28;20352;-90
2023/05/20 13:47:20;;;;;;;10.30;7.75;;;;;;;;;;5098991;28;20394;-90
2023/05/20 13:49:46;;;;;;;11.80;7.90;;;;;;;;;;5097333;28;20058;-91
2023/05/20 13:52:12;;;;;;;12.57;8.00;;;;;;;;;;5098277;28;20023;-89
2023/05/20 13:54:38;;;;;;;8.98;7.40;;;;;;;;;;5097868;28;20028;-90
2023/05/20 13:57:06;;;;;;;8.88;7.25;;;;;;;;;;5096832;28;20032;-89
2023/05/20 13:59:33;;;;;;;9.63;8.35;;;;;;;;;;5097130;28;20028;-89
2023/05/20 14:01:59;;;;;;;12.88;8.52;;;;;;;;;;5096779;28;20052;-91
2023/05/20 14:04:26;;;;;;;9.05;7.82;;;;;;;;;;5098043;28;20032;-90
2023/05/20 14:06:52;;;;;;;8.18;7.30;;;;;;;;;;5097880;28;20024;-90
2023/05/20 14:09:18;;;;;;;12.18;7.70;;;;;;;;;;5096465;28;20023;-90
2023/05/20 14:11:44;;;;;;;10.93;8.05;;;;;;;;;;5096696;28;20034;-90
2023/05/20 14:14:10;;;;;;;10.77;8.13;;;;;;;;;;5097851;28;20045;-90
2023/05/20 14:16:38;;;;;;;11.65;8.38;;;;;;;;;;5096783;28;20032;-90
2023/05/20 14:19:06;;;;;;;10.70;7.63;;;;;;;;;;5097625;28;20135;-90
2023/05/20 14:21:33;;;;;;;10.38;7.93;;;;;;;;;;5097617;28;20028;-90
2023/05/20 14:24:00;;;;;;;10.27;8.15;;;;;;;;;;5096716;28;20029;-90
2023/05/20 14:26:26;;;;;;;11.20;8.15;;;;;;;;;;5097749;28;20032;-90
2023/05/20 14:28:54;;;;;;;10.65;9.07;;;;;;;;;;5097638;28;20371;-89
2023/05/20 14:31:20;;;;;;;10.23;7.97;;;;;;;;;;5096832;28;20431;-90
2023/05/20 14:33:46;;;;;;;12.23;7.97;;;;;;;;;;5097425;28;20055;-90
2023/05/20 14:36:12;;;;;;;11.32;8.05;;;;;;;;;;5096644;28;20025;-90
2023/05/20 14:38:39;;;;;;;18.02;8.43;;;;;;;;;;5096713;28;20425;-89
2023/05/20 14:41:05;;;;;;;13.15;7.63;;;;;;;;;;5097742;28;20367;-90
2023/05/20 14:43:31;;;;;;;10.10;8.10;;;;;;;;;;5096551;28;20028;-89
2023/05/20 14:45:57;;;;;;;12.13;8.82;;;;;;;;;;5097471;28;20322;-90
2023/05/20 14:48:23;;;;;;;10.82;8.07;;;;;;;;;;5097309;28;20027;-91
2023/05/20 14:50:49;;;;;;;12.35;8.07;;;;;;;;;;5096907;28;20024;-90
2023/05/20 14:53:16;;;;;;;10.10;8.45;;;;;;;;;;5101869;28;20020;-91
2023/05/20 14:55:42;;;;;;;11.57;8.52;;;;;;;;;;5100423;28;20028;-89
2023/05/20 14:58:08;;;;;;;11.55;8.00;;;;;;;;;;5100358;28;20024;-89